首页
METAR-TAF:

METAR-TAF

机场 :

清莱国际机场

清萊, 泰国

纬度: 19-57-08N, 经度: 099-52-59E, 海拔: 390米

当前天气观测

该预报发布于1小时和8分钟前的02:00 UTC
风速3节,风向多变
温度 31°C
湿度 71%
气压 1006 hPa
能见度10公里或以上
少量云层高于2000英尺

METAR: VTCT 220200Z VRB03KT 9999 FEW020 31/25 Q1006 NOSIG

时间: 10:08 (03:08 UTC)

预报

该预报发布于4小时和8分钟前的23:00 UTC
预报有效从22日的 00点(UTC)到 23日的 06点(UTC)
风速5节,风向南转西南
能见度10公里或以上
散云层高于4000英尺
短暂存在
从 22日的 07点(UTC)到 22日的 13点(UTC)
少量云层高于2000英尺, 积雨云.
多云层高于3500英尺
雷暴, 小雨
成为
从 22日的 10点(UTC)到 22日的 12点(UTC)
风速5节,风向西
短暂存在
从 22日的 14点(UTC)到 22日的 18点(UTC)
风速15节,风向西南,有时为25节阵风
能見度: 4000
少量云层高于2000英尺, 积雨云.
多云层高于3500英尺
雷暴, 雨,

TAF: VTCT 212300Z 2200/2306 20005KT 9999 SCT040 TEMPO 2207/2213 -TSRA FEW020CB BKN035 BECMG 2210/2212 26005KT TEMPO 2214/2218 23015G25KT 4000 TSRA FEW020CB BKN035

超过4000个机场的气象观测和天气预报(METAR&TAF报告)。

可查询的气象台以黄色和红色小点在地图上表示。

将鼠标移到小点上方,可查看气象台名称。

然后点击查看天气观测和预报。

如需切换地图:点击带黑十字的绿色按钮放大地图;点击带横线的绿色按钮缩小地图;或者点击绿色箭头查看邻近地区的地图。


METAR-TAF: